createdAt,value
2023-02-26T00:01:42.534Z,44.81
2023-02-26T00:04:12.282Z,44.96
2023-02-26T00:06:55.301Z,44.69
2023-02-26T00:09:28.509Z,45.13
2023-02-26T00:11:57.116Z,44.95
2023-02-26T00:14:26.145Z,45.14
2023-02-26T00:17:08.657Z,45.29
2023-02-26T00:19:37.903Z,45.25
2023-02-26T00:22:06.332Z,45.51
2023-02-26T00:24:37.803Z,45.22
2023-02-26T00:27:06.003Z,45.30
2023-02-26T00:29:34.710Z,45.23
2023-02-26T00:32:03.456Z,45.19
2023-02-26T00:34:32.277Z,45.50
2023-02-26T00:37:19.157Z,45.54
2023-02-26T00:39:56.823Z,45.26
2023-02-26T00:42:25.483Z,45.60
2023-02-26T00:44:54.022Z,45.55
2023-02-26T00:47:30.704Z,45.62
2023-02-26T00:50:07.244Z,45.46
2023-02-26T00:52:45.286Z,45.69
2023-02-26T00:55:14.849Z,45.55
2023-02-26T00:57:42.972Z,45.65
2023-02-26T01:00:12.401Z,45.67
2023-02-26T01:02:41.464Z,45.59
2023-02-26T01:05:11.109Z,45.68
2023-02-26T01:07:43.704Z,45.65
2023-02-26T01:10:12.935Z,46.10
2023-02-26T01:12:43.261Z,46.00
2023-02-26T01:15:12.256Z,46.07
2023-02-26T01:17:46.832Z,45.95
2023-02-26T01:20:19.227Z,45.94
2023-02-26T01:22:53.792Z,46.07
2023-02-26T01:25:26.873Z,45.98
2023-02-26T01:27:57.899Z,45.94
2023-02-26T01:30:27.059Z,46.11
2023-02-26T01:33:04.712Z,45.92
2023-02-26T01:35:44.884Z,46.48
2023-02-26T01:38:22.283Z,46.14
2023-02-26T01:41:14.524Z,46.05
2023-02-26T01:43:50.510Z,46.24
2023-02-26T01:46:27.555Z,46.21
2023-02-26T01:48:57.928Z,46.29
2023-02-26T01:51:46.513Z,46.26
2023-02-26T01:54:16.371Z,46.28
2023-02-26T01:56:45.703Z,46.27
2023-02-26T01:59:17.885Z,46.73
2023-02-26T02:01:46.342Z,46.53
2023-02-26T02:04:17.390Z,46.88
2023-02-26T02:06:45.971Z,46.62
2023-02-26T02:09:14.456Z,46.77
2023-02-26T02:11:58.804Z,47.01
2023-02-26T02:14:37.701Z,46.85
2023-02-26T02:17:14.160Z,47.06
2023-02-26T02:20:00.188Z,46.97
2023-02-26T02:22:52.598Z,46.87
2023-02-26T02:25:59.532Z,46.85
2023-02-26T02:28:39.230Z,46.87
2023-02-26T02:31:12.815Z,47.16
2023-02-26T02:33:45.615Z,46.57
2023-02-26T02:36:20.641Z,47.12
2023-02-26T02:38:52.645Z,47.14
2023-02-26T02:41:24.163Z,47.25
2023-02-26T02:43:53.953Z,46.76
2023-02-26T02:46:28.464Z,47.09
2023-02-26T02:49:02.643Z,47.16
2023-02-26T02:51:34.427Z,47.25
2023-02-26T02:54:07.971Z,46.94
2023-02-26T02:56:39.861Z,47.19
2023-02-26T02:59:15.618Z,47.13
2023-02-26T03:01:46.641Z,47.37
2023-02-26T03:04:17.705Z,47.33
2023-02-26T03:06:46.825Z,47.23
2023-02-26T03:09:14.852Z,47.62
2023-02-26T03:11:43.396Z,47.55
2023-02-26T03:14:12.164Z,47.51
2023-02-26T03:16:55.945Z,47.53
2023-02-26T03:19:34.308Z,47.26
2023-02-26T03:22:08.245Z,47.35
2023-02-26T03:24:41.584Z,47.40
2023-02-26T03:27:18.845Z,47.53
2023-02-26T03:29:52.496Z,47.81
2023-02-26T03:32:27.395Z,47.62
2023-02-26T03:34:59.725Z,47.75
2023-02-26T03:37:33.450Z,47.70
2023-02-26T03:40:06.929Z,47.64
2023-02-26T03:42:39.545Z,47.52
2023-02-26T03:45:11.178Z,47.50
2023-02-26T03:47:43.636Z,47.57
2023-02-26T03:50:17.046Z,47.57
2023-02-26T03:52:48.593Z,47.50
2023-02-26T03:55:20.877Z,47.53
2023-02-26T03:57:49.813Z,47.88
2023-02-26T04:00:19.989Z,47.81
2023-02-26T04:02:59.419Z,47.81
2023-02-26T04:05:29.947Z,47.89
2023-02-26T04:07:58.639Z,47.67
2023-02-26T04:10:34.274Z,47.77
2023-02-26T04:13:03.576Z,47.77
2023-02-26T04:15:31.624Z,47.78
2023-02-26T04:18:01.183Z,47.93
2023-02-26T04:20:29.337Z,47.84
2023-02-26T04:22:59.477Z,47.84
2023-02-26T04:25:27.470Z,48.07
2023-02-26T04:27:55.590Z,48.11
2023-02-26T04:30:23.820Z,48.14
2023-02-26T04:32:51.942Z,48.16
2023-02-26T04:35:21.310Z,48.15
2023-02-26T04:37:49.483Z,48.25
2023-02-26T04:40:17.962Z,48.26
2023-02-26T04:42:47.492Z,48.20
2023-02-26T04:45:15.707Z,47.93
2023-02-26T04:47:43.884Z,48.06
2023-02-26T04:50:13.200Z,47.95
2023-02-26T04:52:42.812Z,48.51
2023-02-26T04:55:11.347Z,48.32
2023-02-26T04:57:39.365Z,48.04
2023-02-26T05:00:08.766Z,48.51
2023-02-26T05:02:36.880Z,48.07
2023-02-26T05:05:05.667Z,48.39
2023-02-26T05:07:33.810Z,48.31
2023-02-26T05:10:03.303Z,48.31
2023-02-26T05:12:31.345Z,48.35
2023-02-26T05:14:59.443Z,48.34
2023-02-26T05:17:27.523Z,48.37
2023-02-26T05:19:55.594Z,48.58
2023-02-26T05:22:23.720Z,48.63
2023-02-26T05:24:51.775Z,48.48
2023-02-26T05:27:21.182Z,48.51
2023-02-26T05:29:49.307Z,48.44
2023-02-26T05:32:17.309Z,48.33
2023-02-26T05:34:45.374Z,48.42
2023-02-26T05:37:13.498Z,48.37
2023-02-26T05:39:42.323Z,48.59
2023-02-26T05:42:10.765Z,48.73
2023-02-26T05:44:40.129Z,49.10
2023-02-26T05:47:08.332Z,48.57
2023-02-26T05:49:36.374Z,48.88
2023-02-26T05:52:04.605Z,48.71
2023-02-26T05:54:32.630Z,48.80
2023-02-26T05:57:00.624Z,48.73
2023-02-26T05:59:28.714Z,48.82
2023-02-26T06:01:58.618Z,48.88
2023-02-26T06:04:26.655Z,48.88
2023-02-26T06:06:54.784Z,48.89
2023-02-26T06:09:22.761Z,48.76
2023-02-26T06:11:50.906Z,48.44
2023-02-26T06:14:18.940Z,48.74
2023-02-26T06:16:47.001Z,49.06
2023-02-26T06:19:16.540Z,48.83
2023-02-26T06:21:44.619Z,49.11
2023-02-26T06:24:12.594Z,49.02
2023-02-26T06:26:40.642Z,49.11
2023-02-26T06:29:09.870Z,48.79
2023-02-26T06:31:38.141Z,49.12
2023-02-26T06:34:06.214Z,48.92
2023-02-26T06:36:35.721Z,48.79
2023-02-26T06:39:03.887Z,48.76
2023-02-26T06:41:31.829Z,48.72
2023-02-26T06:43:59.840Z,49.03
2023-02-26T06:46:28.115Z,48.88
2023-02-26T06:48:56.167Z,48.74
2023-02-26T06:51:25.438Z,48.78
2023-02-26T06:53:57.368Z,48.58
2023-02-26T06:56:26.384Z,48.62
2023-02-26T06:58:54.745Z,48.73
2023-02-26T07:01:22.730Z,48.65
2023-02-26T07:03:50.809Z,48.66
2023-02-26T07:06:27.542Z,48.99
2023-02-26T07:08:57.745Z,48.74
2023-02-26T07:11:26.220Z,48.71
2023-02-26T07:13:55.119Z,48.66
2023-02-26T07:16:23.604Z,48.93
2023-02-26T07:18:51.821Z,48.77
2023-02-26T07:21:19.837Z,48.96
2023-02-26T07:23:47.903Z,48.88
2023-02-26T07:26:17.697Z,48.77
2023-02-26T07:28:45.839Z,48.90
2023-02-26T07:31:14.073Z,48.76
2023-02-26T07:33:42.145Z,49.09
2023-02-26T07:36:10.427Z,48.97
2023-02-26T07:38:39.007Z,49.10
2023-02-26T07:41:07.018Z,48.97
2023-02-26T07:43:36.678Z,49.06
2023-02-26T07:46:05.228Z,49.28
2023-02-26T07:48:33.784Z,49.13
2023-02-26T07:51:01.817Z,49.01
2023-02-26T07:53:30.053Z,49.07
2023-02-26T07:55:58.162Z,48.69
2023-02-26T07:58:27.872Z,49.02
2023-02-26T08:01:01.389Z,49.26
2023-02-26T08:03:33.605Z,49.19
2023-02-26T08:06:03.771Z,49.02
2023-02-26T08:08:34.853Z,49.01
2023-02-26T08:11:03.556Z,49.20
2023-02-26T08:13:31.671Z,49.14
2023-02-26T08:16:01.424Z,49.22
2023-02-26T08:18:29.532Z,49.27
2023-02-26T08:20:57.556Z,49.65
2023-02-26T08:23:26.973Z,49.41
2023-02-26T08:26:01.608Z,49.33
2023-02-26T08:28:30.015Z,49.50
2023-02-26T08:30:58.479Z,49.75
2023-02-26T08:33:28.650Z,49.44
2023-02-26T08:36:02.186Z,49.68
2023-02-26T08:38:31.011Z,49.44
2023-02-26T08:40:59.540Z,49.59
2023-02-26T08:43:27.840Z,49.29
2023-02-26T08:45:57.450Z,49.49
2023-02-26T08:48:28.113Z,49.39
2023-02-26T08:50:56.219Z,49.36
2023-02-26T08:53:24.554Z,49.52
2023-02-26T08:55:54.234Z,49.50
2023-02-26T08:58:22.772Z,49.58
2023-02-26T09:00:51.064Z,49.19
2023-02-26T09:03:19.361Z,49.11
2023-02-26T09:05:48.841Z,48.85
2023-02-26T09:08:16.798Z,48.50
2023-02-26T09:10:45.185Z,48.48
2023-02-26T09:13:13.952Z,48.20
2023-02-26T09:15:42.171Z,48.20
2023-02-26T09:18:15.683Z,47.99
2023-02-26T09:20:44.514Z,48.07
2023-02-26T09:23:14.335Z,48.29
2023-02-26T09:25:42.437Z,48.06
2023-02-26T09:28:10.548Z,48.10
2023-02-26T09:30:38.771Z,47.78
2023-02-26T09:33:06.775Z,47.75
2023-02-26T09:35:34.703Z,47.81
2023-02-26T09:38:03.970Z,47.22
2023-02-26T09:40:44.138Z,46.96
2023-02-26T09:43:36.526Z,46.73
2023-02-26T09:46:12.682Z,46.63
2023-02-26T09:48:41.972Z,46.27
2023-02-26T09:51:17.230Z,46.19
2023-02-26T09:53:45.280Z,45.95
2023-02-26T09:56:18.659Z,45.92
2023-02-26T09:58:47.723Z,46.20
2023-02-26T10:01:24.756Z,46.00
2023-02-26T10:04:00.964Z,45.94
2023-02-26T10:06:32.544Z,46.14
2023-02-26T10:09:19.280Z,45.94
2023-02-26T10:11:54.490Z,45.44
2023-02-26T10:14:28.296Z,45.91
2023-02-26T10:17:00.586Z,45.24
2023-02-26T10:19:34.185Z,45.31
2023-02-26T10:22:07.273Z,45.28
2023-02-26T10:24:42.213Z,45.18
2023-02-26T10:27:16.618Z,45.56
2023-02-26T10:29:52.936Z,45.39
2023-02-26T10:32:28.182Z,44.87
2023-02-26T10:34:58.846Z,45.18
2023-02-26T10:37:40.181Z,44.82
2023-02-26T10:40:16.156Z,44.37
2023-02-26T10:42:50.001Z,43.83
2023-02-26T10:45:31.991Z,43.44
2023-02-26T10:48:14.524Z,42.91
2023-02-26T10:50:49.737Z,42.94
2023-02-26T10:53:17.818Z,42.59
2023-02-26T10:55:50.158Z,42.79
2023-02-26T10:58:26.026Z,42.67
2023-02-26T11:00:56.591Z,43.20
2023-02-26T11:03:32.459Z,43.22
2023-02-26T11:06:00.589Z,43.40
2023-02-26T11:08:33.918Z,43.71
2023-02-26T11:11:03.985Z,43.62
2023-02-26T11:13:38.059Z,43.58
2023-02-26T11:16:12.874Z,43.37
2023-02-26T11:18:42.780Z,43.42
2023-02-26T11:21:19.308Z,42.79
2023-02-26T11:23:48.612Z,42.21
2023-02-26T11:26:19.254Z,42.26
2023-02-26T11:28:52.077Z,41.50
2023-02-26T11:31:22.420Z,41.25
2023-02-26T11:33:53.608Z,41.42
2023-02-26T11:36:25.232Z,41.34
2023-02-26T11:38:57.142Z,41.54
2023-02-26T11:41:26.303Z,41.64
2023-02-26T11:44:02.429Z,41.23
2023-02-26T11:46:31.430Z,41.24
2023-02-26T11:49:01.721Z,41.03
2023-02-26T11:51:31.526Z,40.94
2023-02-26T11:54:02.015Z,40.68
2023-02-26T11:56:34.354Z,40.23
2023-02-26T11:59:09.878Z,39.95
2023-02-26T12:01:40.001Z,39.85
2023-02-26T12:04:12.341Z,39.60
2023-02-26T12:06:40.877Z,39.63
2023-02-26T12:09:13.260Z,39.60
2023-02-26T12:12:01.206Z,39.08
2023-02-26T12:14:54.172Z,38.82
2023-02-26T12:17:52.086Z,38.73
2023-02-26T12:20:26.609Z,38.98
2023-02-26T12:23:11.889Z,38.49
2023-02-26T12:26:21.333Z,38.40
2023-02-26T12:29:15.038Z,38.42
2023-02-26T12:32:10.231Z,38.29
2023-02-26T12:35:09.778Z,38.45
2023-02-26T12:37:51.611Z,38.59
2023-02-26T12:41:04.670Z,38.63
2023-02-26T12:43:44.495Z,38.67
2023-02-26T12:46:22.914Z,38.70
2023-02-26T12:49:17.510Z,38.20
2023-02-26T12:51:58.075Z,37.87
2023-02-26T12:54:37.189Z,37.80
2023-02-26T12:57:33.427Z,37.43
2023-02-26T13:00:17.312Z,37.26
2023-02-26T13:03:14.420Z,37.40
2023-02-26T13:06:03.613Z,37.51
2023-02-26T13:08:39.764Z,37.47
2023-02-26T13:11:21.505Z,37.48
2023-02-26T13:14:07.458Z,37.45
2023-02-26T13:16:51.379Z,37.61
2023-02-26T13:19:31.378Z,36.99
2023-02-26T13:22:06.072Z,37.48
2023-02-26T13:24:39.549Z,37.33
2023-02-26T13:27:10.748Z,36.80
2023-02-26T13:29:44.350Z,36.90
2023-02-26T13:32:17.782Z,37.08
2023-02-26T13:34:51.756Z,36.34
2023-02-26T13:37:27.285Z,36.46
2023-02-26T13:40:08.759Z,35.98
2023-02-26T13:42:48.258Z,36.05
2023-02-26T13:45:40.134Z,36.15
2023-02-26T13:48:23.345Z,35.98
2023-02-26T13:51:01.438Z,36.03
2023-02-26T13:53:49.087Z,35.21
2023-02-26T13:56:22.331Z,35.72
2023-02-26T13:58:53.514Z,35.74
2023-02-26T14:01:30.080Z,35.83
2023-02-26T14:04:23.973Z,35.58
2023-02-26T14:06:54.297Z,35.43
2023-02-26T14:09:55.556Z,35.36
2023-02-26T14:12:35.746Z,35.09
2023-02-26T14:15:29.768Z,35.43
2023-02-26T14:18:04.614Z,35.57
2023-02-26T14:20:35.951Z,35.54
2023-02-26T14:23:36.675Z,35.78
2023-02-26T14:26:18.137Z,35.48
2023-02-26T14:28:57.718Z,36.40
2023-02-26T14:31:28.060Z,38.01
2023-02-26T14:34:09.936Z,37.89
2023-02-26T14:36:43.650Z,37.59
2023-02-26T14:39:25.359Z,37.25
2023-02-26T14:42:00.358Z,36.42
2023-02-26T14:44:32.063Z,36.06
2023-02-26T14:47:00.911Z,34.83
2023-02-26T14:49:34.692Z,32.77
2023-02-26T14:52:16.423Z,31.77
2023-02-26T14:55:00.473Z,30.68
2023-02-26T14:57:39.428Z,30.58
2023-02-26T15:00:32.266Z,29.82
2023-02-26T15:03:35.704Z,29.52
2023-02-26T15:06:18.208Z,28.49
2023-02-26T15:09:01.831Z,28.44
2023-02-26T15:11:46.221Z,27.75
2023-02-26T15:14:53.408Z,27.17
2023-02-26T15:17:35.383Z,26.84
2023-02-26T15:20:17.624Z,25.83
2023-02-26T15:23:00.351Z,25.34
2023-02-26T15:25:34.087Z,25.06
2023-02-26T15:28:03.533Z,24.98
2023-02-26T15:30:35.512Z,24.62
2023-02-26T15:33:07.306Z,24.48
2023-02-26T15:35:35.996Z,23.46
2023-02-26T15:38:05.308Z,23.21
2023-02-26T15:40:39.313Z,23.55
2023-02-26T15:43:10.450Z,23.78
2023-02-26T15:45:42.967Z,24.34
2023-02-26T15:48:16.813Z,24.90
2023-02-26T15:50:50.329Z,25.29
2023-02-26T15:53:25.237Z,25.78
2023-02-26T15:55:55.813Z,26.26
2023-02-26T15:58:30.800Z,26.46
2023-02-26T16:01:03.045Z,26.91
2023-02-26T16:03:33.884Z,27.27
2023-02-26T16:06:02.401Z,27.89
2023-02-26T16:08:31.310Z,27.94
2023-02-26T16:11:02.051Z,28.05
2023-02-26T16:13:32.965Z,28.91
2023-02-26T16:16:08.461Z,28.70
2023-02-26T16:18:37.827Z,27.83
2023-02-26T16:21:08.698Z,27.05
2023-02-26T16:23:45.307Z,26.83
2023-02-26T16:26:21.154Z,26.99
2023-02-26T16:28:51.845Z,26.95
2023-02-26T16:31:25.589Z,27.44
2023-02-26T16:33:59.970Z,27.19
2023-02-26T16:36:33.006Z,27.61
2023-02-26T16:39:11.908Z,27.91
2023-02-26T16:41:42.001Z,27.96
2023-02-26T16:44:47.198Z,28.33
2023-02-26T16:47:18.133Z,28.68
2023-02-26T16:49:46.681Z,28.82
2023-02-26T16:52:20.195Z,28.96
2023-02-26T16:54:57.488Z,28.92
2023-02-26T16:57:31.278Z,28.76
2023-02-26T17:00:03.459Z,28.97
2023-02-26T17:02:36.060Z,28.68
2023-02-26T17:05:16.668Z,28.54
2023-02-26T17:07:51.646Z,28.78
2023-02-26T17:10:24.257Z,29.14
2023-02-26T17:12:54.442Z,29.05
2023-02-26T17:15:29.160Z,29.09
2023-02-26T17:17:59.440Z,29.15
2023-02-26T17:20:29.420Z,29.52
2023-02-26T17:22:58.829Z,29.43
2023-02-26T17:25:29.449Z,29.56
2023-02-26T17:27:57.846Z,29.25
2023-02-26T17:30:29.862Z,29.52
2023-02-26T17:33:00.075Z,29.74
2023-02-26T17:35:29.438Z,29.94
2023-02-26T17:37:58.192Z,29.48
2023-02-26T17:40:31.630Z,29.71
2023-02-26T17:43:04.902Z,29.71
2023-02-26T17:45:33.781Z,29.72
2023-02-26T17:48:03.408Z,29.62
2023-02-26T17:50:39.889Z,30.48
2023-02-26T17:53:08.918Z,30.29
2023-02-26T17:55:39.547Z,30.53
2023-02-26T17:58:09.126Z,31.08
2023-02-26T18:00:42.053Z,31.30
2023-02-26T18:03:12.328Z,31.88
2023-02-26T18:05:41.826Z,31.98
2023-02-26T18:08:21.678Z,32.31
2023-02-26T18:10:50.337Z,32.65
2023-02-26T18:13:18.891Z,32.91
2023-02-26T18:15:47.631Z,33.18
2023-02-26T18:18:18.888Z,33.60
2023-02-26T18:20:47.477Z,33.79
2023-02-26T18:23:16.985Z,33.84
2023-02-26T18:25:46.910Z,33.99
2023-02-26T18:28:17.552Z,34.10
2023-02-26T18:30:58.699Z,34.71
2023-02-26T18:39:28.137Z,35.04
2023-02-26T18:42:12.089Z,35.23
2023-02-26T18:45:02.432Z,35.47
2023-02-26T18:47:30.860Z,35.61
2023-02-26T18:50:03.796Z,36.12
2023-02-26T18:52:32.163Z,35.93
2023-02-26T18:55:04.106Z,36.43
2023-02-26T19:03:34.949Z,36.66
2023-02-26T19:06:09.460Z,36.97
2023-02-26T19:26:34.386Z,40.59
2023-02-26T19:41:44.205Z,40.12
2023-02-26T19:56:42.793Z,40.08
2023-02-26T19:59:18.769Z,40.21
2023-02-26T20:01:50.256Z,40.14
2023-02-26T20:04:21.125Z,40.03
2023-02-26T20:06:55.166Z,40.15
2023-02-26T20:12:25.022Z,40.31
2023-02-26T20:14:53.870Z,40.47
2023-02-26T20:17:22.236Z,40.59
2023-02-26T20:19:50.771Z,40.09
2023-02-26T20:22:20.993Z,40.25
2023-02-26T20:24:49.009Z,40.45
2023-02-26T20:27:17.107Z,40.41
2023-02-26T20:29:47.253Z,40.65
2023-02-26T20:32:16.414Z,40.73
2023-02-26T20:34:44.547Z,40.65
2023-02-26T20:37:12.820Z,40.86
2023-02-26T20:39:40.966Z,40.69
2023-02-26T20:42:09.366Z,40.68
2023-02-26T20:44:37.550Z,40.88
2023-02-26T20:47:07.877Z,40.78
2023-02-26T20:49:36.646Z,40.63
2023-02-26T20:52:05.539Z,41.22
2023-02-26T20:54:33.770Z,40.97
2023-02-26T20:57:01.980Z,40.91
2023-02-26T20:59:30.853Z,40.78
2023-02-26T21:01:59.355Z,40.89
2023-02-26T21:04:32.569Z,40.87
2023-02-26T21:07:13.433Z,40.87
2023-02-26T21:09:41.958Z,41.01
2023-02-26T21:12:10.589Z,40.75
2023-02-26T21:14:38.579Z,41.12
2023-02-26T21:17:07.340Z,40.90
2023-02-26T21:19:36.949Z,41.07
2023-02-26T21:22:05.455Z,41.09
2023-02-26T21:24:33.943Z,41.08
2023-02-26T21:27:02.031Z,41.28
2023-02-26T21:29:30.402Z,41.22
2023-02-26T21:32:03.507Z,41.22
2023-02-26T21:34:34.508Z,41.56
2023-02-26T21:37:06.095Z,41.38
2023-02-26T21:39:38.306Z,41.23
2023-02-26T21:42:07.629Z,41.32
2023-02-26T21:44:37.060Z,41.47
2023-02-26T21:47:05.747Z,41.38
2023-02-26T21:49:35.145Z,41.76
2023-02-26T21:52:07.715Z,41.64
2023-02-26T21:54:36.106Z,41.59
2023-02-26T21:57:04.244Z,41.71
2023-02-26T21:59:32.321Z,41.88
2023-02-26T22:02:00.525Z,41.86
2023-02-26T22:04:29.196Z,42.15
2023-02-26T22:06:58.587Z,41.96
2023-02-26T22:09:28.484Z,41.93
2023-02-26T22:11:56.944Z,41.79
2023-02-26T22:14:25.059Z,41.96
2023-02-26T22:16:53.122Z,42.07
2023-02-26T22:19:22.577Z,42.07
2023-02-26T22:21:50.755Z,42.36
2023-02-26T22:24:18.948Z,42.21
2023-02-26T22:26:52.008Z,42.40
2023-02-26T22:29:20.216Z,42.27
2023-02-26T22:31:54.118Z,42.30
2023-02-26T22:34:23.208Z,42.40
2023-02-26T22:36:52.295Z,42.31
2023-02-26T22:39:21.023Z,42.54
2023-02-26T22:41:51.471Z,42.48
2023-02-26T22:44:20.308Z,42.72
2023-02-26T22:46:51.647Z,42.66
2023-02-26T22:49:20.703Z,42.69
2023-02-26T22:51:48.780Z,42.76
2023-02-26T22:54:16.753Z,42.86
2023-02-26T22:56:48.011Z,43.07
2023-02-26T22:59:19.937Z,42.77
2023-02-26T23:01:48.030Z,42.78
2023-02-26T23:04:16.252Z,42.65
2023-02-26T23:06:44.362Z,42.72
2023-02-26T23:09:12.513Z,42.68
2023-02-26T23:11:40.857Z,42.44
2023-02-26T23:14:09.679Z,42.68
2023-02-26T23:16:39.787Z,42.73
2023-02-26T23:19:07.886Z,42.34
2023-02-26T23:21:36.087Z,42.76
2023-02-26T23:24:04.164Z,42.49
2023-02-26T23:26:32.260Z,42.92
2023-02-26T23:29:00.472Z,42.80
2023-02-26T23:31:28.936Z,42.77
2023-02-26T23:33:58.613Z,42.53
2023-02-26T23:36:26.637Z,42.48
2023-02-26T23:38:54.597Z,42.37
2023-02-26T23:41:22.641Z,42.37
2023-02-26T23:43:50.735Z,42.50
2023-02-26T23:46:18.917Z,42.67
2023-02-26T23:48:47.019Z,42.15
2023-02-26T23:51:16.373Z,42.44
2023-02-26T23:53:44.481Z,42.11
2023-02-26T23:56:12.552Z,42.05
2023-02-26T23:58:40.636Z,42.17
